createdAt,value
2023-02-28T00:02:57.684Z,43.99
2023-02-28T00:06:00.745Z,43.97
2023-02-28T00:09:04.163Z,43.92
2023-02-28T00:12:11.075Z,44.04
2023-02-28T00:15:14.124Z,43.95
2023-02-28T00:18:17.039Z,44.02
2023-02-28T00:21:20.904Z,43.96
2023-02-28T00:24:23.890Z,43.99
2023-02-28T00:27:28.364Z,44.00
2023-02-28T00:30:31.368Z,44.09
2023-02-28T00:33:34.556Z,44.11
2023-02-28T00:36:37.588Z,44.10
2023-02-28T00:39:41.769Z,44.03
2023-02-28T00:42:46.155Z,44.01
2023-02-28T00:45:49.090Z,43.92
2023-02-28T00:48:52.089Z,43.87
2023-02-28T00:51:56.441Z,43.70
2023-02-28T00:54:59.501Z,43.75
2023-02-28T00:58:03.813Z,43.72
2023-02-28T01:01:06.948Z,43.69
2023-02-28T01:04:09.962Z,43.70
2023-02-28T01:07:12.968Z,43.81
2023-02-28T01:10:16.290Z,43.79
2023-02-28T01:13:20.933Z,43.80
2023-02-28T01:16:23.984Z,43.87
2023-02-28T01:19:26.905Z,43.83
2023-02-28T01:22:30.262Z,43.83
2023-02-28T01:25:36.623Z,43.78
2023-02-28T01:28:43.475Z,43.88
2023-02-28T01:31:46.733Z,43.74
2023-02-28T01:34:49.686Z,43.54
2023-02-28T01:37:52.676Z,43.49
2023-02-28T01:40:55.916Z,43.36
2023-02-28T01:44:06.871Z,43.18
2023-02-28T01:47:09.965Z,43.27
2023-02-28T01:50:18.324Z,43.39
2023-02-28T01:53:25.770Z,43.22
2023-02-28T01:56:33.621Z,43.20
2023-02-28T01:59:47.117Z,43.35
2023-02-28T02:02:53.475Z,43.26
2023-02-28T02:05:56.498Z,43.20
2023-02-28T02:08:59.446Z,43.23
2023-02-28T02:12:16.694Z,43.15
2023-02-28T02:15:28.762Z,43.09
2023-02-28T02:18:42.328Z,43.09
2023-02-28T02:22:15.238Z,43.08
2023-02-28T02:25:28.800Z,43.17
2023-02-28T02:29:02.097Z,43.20
2023-02-28T02:32:27.841Z,43.15
2023-02-28T02:35:37.536Z,43.03
2023-02-28T02:38:48.990Z,42.95
2023-02-28T02:41:54.937Z,42.97
2023-02-28T02:45:03.437Z,42.96
2023-02-28T02:48:11.293Z,43.10
2023-02-28T02:51:18.505Z,43.01
2023-02-28T02:54:28.948Z,43.04
2023-02-28T02:57:38.224Z,43.00
2023-02-28T03:00:44.868Z,43.02
2023-02-28T03:03:48.081Z,43.03
2023-02-28T03:06:55.878Z,42.99
2023-02-28T03:09:59.918Z,42.97
2023-02-28T03:13:17.000Z,42.98
2023-02-28T03:16:35.728Z,42.94
2023-02-28T03:19:52.456Z,42.88
2023-02-28T03:23:06.066Z,42.86
2023-02-28T03:26:15.781Z,42.91
2023-02-28T03:29:29.777Z,42.88
2023-02-28T03:32:39.677Z,42.89
2023-02-28T03:35:46.028Z,42.92
2023-02-28T03:38:56.633Z,42.86
2023-02-28T03:42:03.209Z,42.95
2023-02-28T03:45:11.300Z,42.87
2023-02-28T03:48:19.635Z,42.84
2023-02-28T03:51:26.433Z,42.85
2023-02-28T03:54:35.541Z,42.41
2023-02-28T03:57:45.536Z,42.31
2023-02-28T04:00:53.405Z,42.18
2023-02-28T04:03:56.441Z,42.23
2023-02-28T04:07:04.285Z,42.29
2023-02-28T04:10:10.125Z,42.33
2023-02-28T04:13:13.027Z,42.28
2023-02-28T04:16:32.148Z,42.19
2023-02-28T04:19:37.393Z,42.26
2023-02-28T04:22:40.345Z,42.24
2023-02-28T04:25:44.684Z,42.33
2023-02-28T04:28:47.701Z,42.34
2023-02-28T04:31:50.994Z,42.26
2023-02-28T04:34:53.993Z,42.32
2023-02-28T04:37:56.965Z,42.29
2023-02-28T04:41:02.101Z,42.36
2023-02-28T04:44:05.211Z,42.31
2023-02-28T04:47:08.265Z,42.14
2023-02-28T04:50:12.022Z,42.35
2023-02-28T04:53:14.980Z,42.25
2023-02-28T04:56:19.937Z,42.39
2023-02-28T04:59:22.928Z,42.42
2023-02-28T05:02:25.972Z,42.39
2023-02-28T05:05:29.046Z,42.41
2023-02-28T05:08:32.001Z,42.26
2023-02-28T05:11:38.282Z,42.14
2023-02-28T05:14:41.239Z,42.25
2023-02-28T05:17:44.419Z,42.25
2023-02-28T05:20:47.549Z,42.26
2023-02-28T05:23:50.454Z,42.37
2023-02-28T05:26:55.852Z,42.19
2023-02-28T05:29:59.983Z,42.17
2023-02-28T05:33:02.973Z,42.23
2023-02-28T05:36:07.022Z,42.13
2023-02-28T05:39:13.459Z,42.22
2023-02-28T05:42:17.833Z,42.13
2023-02-28T05:45:20.781Z,42.11
2023-02-28T05:48:23.751Z,42.07
2023-02-28T05:51:26.862Z,42.04
2023-02-28T05:54:29.896Z,42.04
2023-02-28T05:57:34.330Z,42.05
2023-02-28T06:00:37.345Z,42.09
2023-02-28T06:03:40.292Z,42.09
2023-02-28T06:06:43.473Z,42.08
2023-02-28T06:09:46.413Z,42.02
2023-02-28T06:12:50.725Z,42.16
2023-02-28T06:15:53.691Z,41.96
2023-02-28T06:18:57.774Z,41.97
2023-02-28T06:22:00.814Z,42.03
2023-02-28T06:25:03.961Z,41.96
2023-02-28T06:28:08.301Z,41.93
2023-02-28T06:31:13.011Z,41.98
2023-02-28T06:34:16.649Z,42.01
2023-02-28T06:37:19.981Z,42.05
2023-02-28T06:40:22.932Z,42.06
2023-02-28T06:43:30.591Z,42.10
2023-02-28T06:46:34.590Z,42.00
2023-02-28T06:49:38.222Z,42.10
2023-02-28T06:52:41.422Z,42.14
2023-02-28T06:55:44.432Z,42.07
2023-02-28T06:58:50.637Z,42.01
2023-02-28T07:01:53.743Z,42.07
2023-02-28T07:04:56.870Z,42.11
2023-02-28T07:07:59.925Z,42.03
2023-02-28T07:11:03.013Z,42.12
2023-02-28T07:14:07.408Z,42.10
2023-02-28T07:17:11.900Z,42.24
2023-02-28T07:20:15.378Z,42.12
2023-02-28T07:23:18.814Z,42.15
2023-02-28T07:26:23.044Z,42.21
2023-02-28T07:29:27.997Z,42.05
2023-02-28T07:32:31.044Z,42.17
2023-02-28T07:35:34.555Z,42.10
2023-02-28T07:38:38.456Z,42.08
2023-02-28T07:41:44.510Z,42.05
2023-02-28T07:44:48.977Z,42.13
2023-02-28T07:47:52.387Z,42.26
2023-02-28T07:50:57.454Z,42.23
2023-02-28T07:54:00.715Z,42.22
2023-02-28T07:57:03.947Z,42.33
2023-02-28T08:00:11.439Z,42.23
2023-02-28T08:03:17.762Z,42.18
2023-02-28T08:06:24.084Z,42.40
2023-02-28T08:09:27.206Z,42.47
2023-02-28T08:12:30.289Z,42.65
2023-02-28T08:15:35.017Z,42.62
2023-02-28T08:18:38.360Z,42.72
2023-02-28T08:21:41.485Z,42.73
2023-02-28T08:24:44.948Z,42.84
2023-02-28T08:27:48.037Z,42.84
2023-02-28T08:30:52.855Z,42.74
2023-02-28T08:33:59.822Z,42.80
2023-02-28T08:37:02.875Z,42.78
2023-02-28T08:40:06.913Z,42.53
2023-02-28T08:43:09.969Z,41.97
2023-02-28T08:46:15.682Z,41.65
2023-02-28T08:49:19.688Z,41.43
2023-02-28T08:52:22.682Z,41.34
2023-02-28T08:55:25.713Z,41.39
2023-02-28T08:58:29.223Z,41.24
2023-02-28T09:01:33.840Z,41.30
2023-02-28T09:04:37.060Z,41.27
2023-02-28T09:07:40.018Z,41.23
2023-02-28T09:10:43.028Z,41.30
2023-02-28T09:13:46.207Z,41.35
2023-02-28T09:16:50.688Z,41.41
2023-02-28T09:19:53.754Z,41.59
2023-02-28T09:22:57.686Z,41.96
2023-02-28T09:26:00.764Z,42.13
2023-02-28T09:29:04.881Z,42.14
2023-02-28T09:32:09.339Z,42.03
2023-02-28T09:35:15.479Z,42.06
2023-02-28T09:38:19.034Z,42.05
2023-02-28T09:41:24.807Z,42.17
2023-02-28T09:44:33.848Z,42.36
2023-02-28T09:47:42.898Z,42.54
2023-02-28T09:50:50.320Z,42.88
2023-02-28T09:54:00.076Z,42.75
2023-02-28T09:57:10.886Z,42.89
2023-02-28T10:00:20.421Z,42.98
2023-02-28T10:03:37.807Z,42.92
2023-02-28T10:06:47.488Z,42.94
2023-02-28T10:09:55.678Z,42.86
2023-02-28T10:13:03.078Z,42.91
2023-02-28T10:16:10.621Z,42.83
2023-02-28T10:19:21.172Z,42.90
2023-02-28T10:22:31.593Z,42.98
2023-02-28T10:25:34.567Z,42.97
2023-02-28T10:28:37.689Z,42.82
2023-02-28T10:31:41.753Z,42.89
2023-02-28T10:34:46.462Z,42.87
2023-02-28T10:37:51.027Z,42.88
2023-02-28T10:41:05.877Z,42.89
2023-02-28T10:44:19.714Z,42.95
2023-02-28T10:47:22.746Z,43.03
2023-02-28T10:50:34.577Z,43.01
2023-02-28T10:54:00.502Z,42.93
2023-02-28T10:57:25.407Z,43.13
2023-02-28T11:00:36.665Z,43.08
2023-02-28T11:03:39.636Z,43.11
2023-02-28T11:06:44.042Z,43.18
2023-02-28T11:09:50.240Z,43.17
2023-02-28T11:12:58.703Z,43.04
2023-02-28T11:16:06.235Z,43.05
2023-02-28T11:19:21.363Z,43.15
2023-02-28T11:22:30.160Z,43.10
2023-02-28T11:25:35.716Z,43.15
2023-02-28T11:28:40.207Z,43.09
2023-02-28T11:31:43.327Z,43.11
2023-02-28T11:34:48.450Z,43.04
2023-02-28T11:37:52.887Z,43.14
2023-02-28T11:41:11.788Z,43.05
2023-02-28T11:44:28.567Z,43.27
2023-02-28T11:47:40.156Z,43.14
2023-02-28T11:50:55.945Z,43.16
2023-02-28T11:54:27.309Z,43.05
2023-02-28T11:57:38.324Z,43.13
2023-02-28T12:00:59.306Z,43.09
2023-02-28T12:04:17.983Z,43.08
2023-02-28T12:07:30.338Z,43.21
2023-02-28T12:10:46.525Z,42.97
2023-02-28T12:14:03.088Z,43.00
2023-02-28T12:17:18.898Z,42.97
2023-02-28T12:20:32.985Z,42.97
2023-02-28T12:23:59.655Z,42.98
2023-02-28T12:27:08.578Z,42.96
2023-02-28T12:30:20.370Z,42.92
2023-02-28T12:33:29.935Z,42.87
2023-02-28T12:36:35.923Z,42.95
2023-02-28T12:39:50.274Z,42.85
2023-02-28T12:42:59.359Z,42.99
2023-02-28T12:46:10.143Z,42.95
2023-02-28T12:49:17.662Z,42.94
2023-02-28T12:52:25.720Z,42.96
2023-02-28T12:55:37.587Z,42.90
2023-02-28T12:58:47.397Z,42.83
2023-02-28T13:02:02.446Z,42.90
2023-02-28T13:05:20.809Z,42.86
2023-02-28T13:08:42.478Z,42.84
2023-02-28T13:11:47.189Z,42.98
2023-02-28T13:14:52.573Z,42.90
2023-02-28T13:17:58.920Z,42.83
2023-02-28T13:21:03.141Z,42.87
2023-02-28T13:24:07.278Z,42.82
2023-02-28T13:27:39.799Z,42.94
2023-02-28T13:31:09.086Z,42.79
2023-02-28T13:34:18.338Z,42.84
2023-02-28T13:37:43.862Z,42.89
2023-02-28T13:40:46.846Z,42.89
2023-02-28T13:44:04.663Z,42.81
2023-02-28T13:47:30.003Z,42.77
2023-02-28T13:50:38.614Z,42.95
2023-02-28T13:54:03.143Z,42.87
2023-02-28T13:57:22.937Z,42.84
2023-02-28T14:00:37.625Z,42.78
2023-02-28T14:04:01.028Z,42.88
2023-02-28T14:07:05.212Z,42.84
2023-02-28T14:10:10.251Z,42.82
2023-02-28T14:13:37.974Z,42.88
2023-02-28T14:16:45.802Z,42.80
2023-02-28T14:19:51.312Z,42.77
2023-02-28T14:23:03.356Z,42.85
2023-02-28T14:26:21.195Z,42.86
2023-02-28T14:29:44.042Z,42.73
2023-02-28T14:32:53.362Z,42.75
2023-02-28T14:36:08.336Z,42.75
2023-02-28T14:39:16.455Z,42.77
2023-02-28T14:42:31.605Z,42.77
2023-02-28T14:45:38.411Z,42.77
2023-02-28T14:48:41.805Z,42.77
2023-02-28T14:51:48.243Z,42.77
2023-02-28T14:54:55.590Z,42.74
2023-02-28T14:57:59.759Z,42.65
2023-02-28T15:01:05.024Z,42.67
2023-02-28T15:04:08.533Z,42.71
2023-02-28T15:07:15.917Z,42.73
2023-02-28T15:10:21.653Z,42.60
2023-02-28T15:13:28.191Z,42.47
2023-02-28T15:16:36.495Z,42.60
2023-02-28T15:19:44.281Z,42.61
2023-02-28T15:22:51.746Z,42.72
2023-02-28T15:25:55.927Z,42.63
2023-02-28T15:29:02.593Z,42.68
2023-02-28T15:32:08.369Z,42.62
2023-02-28T15:35:22.942Z,42.66
2023-02-28T15:38:28.970Z,42.79
2023-02-28T15:41:33.588Z,42.75
2023-02-28T15:44:38.048Z,42.83
2023-02-28T15:47:41.204Z,42.79
2023-02-28T15:50:44.276Z,42.84
2023-02-28T15:53:51.960Z,42.86
2023-02-28T15:56:57.608Z,42.87
2023-02-28T16:00:05.365Z,42.84
2023-02-28T16:03:29.262Z,42.98
2023-02-28T16:06:38.612Z,43.04
2023-02-28T16:09:43.563Z,42.97
2023-02-28T16:12:47.038Z,42.99
2023-02-28T16:15:52.397Z,43.02
2023-02-28T16:18:55.986Z,43.08
2023-02-28T16:21:59.310Z,43.11
2023-02-28T16:25:05.201Z,43.01
2023-02-28T16:28:14.604Z,43.17
2023-02-28T16:31:17.665Z,43.31
2023-02-28T16:34:20.625Z,43.49
2023-02-28T16:37:23.594Z,43.63
2023-02-28T16:40:29.576Z,43.47
2023-02-28T16:43:33.322Z,43.49
2023-02-28T16:46:37.097Z,43.42
2023-02-28T16:49:40.655Z,43.43
2023-02-28T16:52:43.623Z,43.44
2023-02-28T16:55:48.431Z,43.33
2023-02-28T16:58:52.368Z,43.39
2023-02-28T17:01:56.990Z,43.27
2023-02-28T17:05:00.347Z,43.28
2023-02-28T17:08:03.239Z,43.22
2023-02-28T17:11:07.521Z,43.02
2023-02-28T17:14:10.361Z,43.04
2023-02-28T17:17:19.984Z,43.10
2023-02-28T17:20:24.488Z,42.93
2023-02-28T17:23:27.358Z,42.92
2023-02-28T17:26:32.271Z,42.63
2023-02-28T17:29:35.687Z,42.41
2023-02-28T17:32:38.542Z,42.30
2023-02-28T17:35:41.512Z,42.34
2023-02-28T17:38:44.489Z,42.33
2023-02-28T17:41:48.711Z,42.49
2023-02-28T17:44:51.530Z,42.61
2023-02-28T17:47:54.497Z,42.53
2023-02-28T17:50:57.437Z,42.48
2023-02-28T17:54:00.691Z,42.52
2023-02-28T17:57:05.136Z,42.62
2023-02-28T18:00:09.187Z,42.63
2023-02-28T18:03:14.986Z,42.72
2023-02-28T18:06:21.157Z,42.79
2023-02-28T18:09:24.789Z,42.84
2023-02-28T18:12:29.276Z,42.86
2023-02-28T18:15:32.998Z,42.92
2023-02-28T18:18:38.141Z,42.83
2023-02-28T18:21:41.051Z,42.91
2023-02-28T18:24:43.948Z,42.85
2023-02-28T18:27:58.235Z,42.79
2023-02-28T18:31:07.469Z,42.64
2023-02-28T18:34:10.436Z,42.73
2023-02-28T18:37:13.305Z,42.75
2023-02-28T18:40:16.603Z,42.61
2023-02-28T18:43:20.877Z,42.58
2023-02-28T18:46:23.868Z,42.59
2023-02-28T18:49:26.918Z,42.75
2023-02-28T18:52:29.838Z,42.62
2023-02-28T18:55:34.166Z,42.57
2023-02-28T18:58:38.527Z,42.59
2023-02-28T19:01:41.412Z,42.46
2023-02-28T19:04:44.456Z,42.62
2023-02-28T19:07:47.798Z,42.54
2023-02-28T19:10:50.740Z,42.57
2023-02-28T19:13:54.944Z,42.60
2023-02-28T19:16:57.915Z,42.51
2023-02-28T19:20:01.014Z,42.42
2023-02-28T19:23:03.905Z,41.94
2023-02-28T19:26:08.138Z,41.70
2023-02-28T19:29:12.386Z,41.57
2023-02-28T19:32:15.357Z,41.74
2023-02-28T19:35:18.651Z,41.86
2023-02-28T19:38:21.796Z,41.83
2023-02-28T19:41:24.710Z,41.93
2023-02-28T19:44:29.273Z,41.83
2023-02-28T19:47:32.383Z,41.72
2023-02-28T19:50:37.097Z,41.75
2023-02-28T19:53:41.396Z,41.74
2023-02-28T19:56:44.361Z,41.81
2023-02-28T19:59:49.581Z,41.81
2023-02-28T20:02:53.455Z,41.68
2023-02-28T20:06:04.652Z,41.71
2023-02-28T20:09:07.538Z,41.76
2023-02-28T20:12:23.179Z,41.69
2023-02-28T20:15:28.240Z,41.62
2023-02-28T20:18:31.105Z,41.71
2023-02-28T20:21:34.009Z,41.58
2023-02-28T20:24:37.300Z,41.69
2023-02-28T20:27:40.190Z,41.68
2023-02-28T20:30:45.852Z,41.70
2023-02-28T20:33:49.388Z,41.60
2023-02-28T20:36:52.421Z,41.65
2023-02-28T20:39:55.302Z,41.58
2023-02-28T20:42:58.283Z,41.53
2023-02-28T20:46:03.036Z,41.62
2023-02-28T20:49:06.179Z,41.56
2023-02-28T20:52:09.202Z,41.54
2023-02-28T20:55:13.750Z,41.68
2023-02-28T20:58:16.715Z,41.56
2023-02-28T21:01:25.952Z,41.60
2023-02-28T21:04:29.078Z,41.48
2023-02-28T21:07:32.011Z,41.63
2023-02-28T21:10:34.987Z,41.56
2023-02-28T21:13:38.496Z,41.41
2023-02-28T21:16:44.350Z,41.53
2023-02-28T21:19:47.539Z,41.31
2023-02-28T21:22:50.573Z,41.45
2023-02-28T21:25:53.476Z,41.41
2023-02-28T21:28:58.404Z,41.44
2023-02-28T21:32:02.725Z,41.35
2023-02-28T21:35:07.383Z,41.24
2023-02-28T21:38:10.297Z,41.31
2023-02-28T21:41:15.675Z,41.28
2023-02-28T21:44:19.328Z,41.13
2023-02-28T21:47:24.149Z,41.26
2023-02-28T21:50:27.066Z,41.27
2023-02-28T21:53:31.427Z,41.16
2023-02-28T21:56:36.084Z,41.16
2023-02-28T21:59:38.927Z,41.22
2023-02-28T22:02:43.289Z,41.22
2023-02-28T22:05:46.222Z,41.24
2023-02-28T22:08:51.112Z,40.96
2023-02-28T22:11:54.147Z,40.83
2023-02-28T22:14:57.037Z,40.42
2023-02-28T22:18:01.302Z,40.32
2023-02-28T22:21:04.966Z,40.33
2023-02-28T22:24:09.238Z,40.51
2023-02-28T22:27:12.118Z,40.52
2023-02-28T22:30:15.506Z,40.46
2023-02-28T22:33:19.946Z,40.60
2023-02-28T22:36:24.202Z,40.72
2023-02-28T22:39:27.142Z,40.75
2023-02-28T22:42:33.238Z,40.71
2023-02-28T22:45:37.009Z,40.76
2023-02-28T22:48:41.498Z,40.70
2023-02-28T22:51:44.550Z,40.83
2023-02-28T22:54:50.884Z,40.87
2023-02-28T22:57:53.830Z,40.92
2023-02-28T23:00:57.821Z,40.86
2023-02-28T23:04:02.822Z,40.98
2023-02-28T23:07:05.845Z,40.92
2023-02-28T23:10:11.217Z,40.92
2023-02-28T23:13:14.071Z,40.93
2023-02-28T23:16:16.931Z,40.91
2023-02-28T23:19:23.644Z,40.73
2023-02-28T23:22:26.676Z,40.82
2023-02-28T23:25:29.740Z,40.81
2023-02-28T23:28:32.686Z,40.78
2023-02-28T23:31:35.597Z,40.62
2023-02-28T23:34:39.843Z,40.77
2023-02-28T23:37:43.297Z,40.72
2023-02-28T23:40:46.185Z,40.82
2023-02-28T23:43:49.619Z,40.82
2023-02-28T23:46:54.415Z,40.81
2023-02-28T23:49:58.707Z,40.71
2023-02-28T23:53:01.594Z,40.70
2023-02-28T23:56:04.920Z,40.66
2023-02-28T23:59:08.104Z,40.85
